Time;durP1;ratioP1;P1;durP2;ratioP2;P2;SDS_P1;SDS_P2;PMS_P1;PMS_P2;Temp;Humidity;BMP_temperature;BMP_pressure;BME280_temperature;BME280_humidity;BME280_pressure;Samples;Min_cycle;Max_cycle;Signal;HPM_P1;HPM_P2
2024/03/03 00:00:33;;;;;;;42.67;35.37;;;6.50;90.90;;;;;;5076708;28;20166;-86
2024/03/03 00:02:58;;;;;;;38.53;32.87;;;6.50;91.00;;;;;;5094800;28;20311;-87
2024/03/03 00:05:24;;;;;;;43.47;34.23;;;6.40;91.10;;;;;;5094689;28;20185;-86
2024/03/03 00:07:49;;;;;;;39.97;35.10;;;6.40;91.10;;;;;;5094587;28;20182;-86
2024/03/03 00:10:15;;;;;;;43.00;34.23;;;6.40;91.10;;;;;;5094679;28;20206;-86
2024/03/03 00:12:40;;;;;;;42.83;35.53;;;6.30;91.20;;;;;;5094661;28;20619;-86
2024/03/03 00:15:06;;;;;;;44.80;36.03;;;6.30;91.30;;;;;;5076659;28;20669;-86
2024/03/03 00:17:32;;;;;;;41.53;35.77;;;6.30;91.40;;;;;;5094484;28;20215;-87
2024/03/03 00:19:57;;;;;;;43.20;34.20;;;6.40;91.50;;;;;;5094879;28;20166;-86
2024/03/03 00:22:23;;;;;;;44.57;34.83;;;6.30;91.60;;;;;;5094588;28;20560;-86
2024/03/03 00:24:48;;;;;;;41.93;35.03;;;6.30;91.70;;;;;;5076133;28;20241;-85
2024/03/03 00:27:14;;;;;;;39.70;32.33;;;6.30;91.70;;;;;;5076348;28;20258;-85
2024/03/03 00:29:39;;;;;;;44.47;34.30;;;6.30;91.70;;;;;;5076243;28;20693;-86
2024/03/03 00:32:05;;;;;;;39.57;33.40;;;6.30;91.70;;;;;;5094574;28;20663;-85
2024/03/03 00:34:31;;;;;;;44.83;34.83;;;6.30;91.80;;;;;;5075897;28;20198;-86
2024/03/03 00:36:56;;;;;;;43.93;34.47;;;6.30;91.80;;;;;;5094086;28;20194;-85
2024/03/03 00:39:22;;;;;;;43.33;34.07;;;6.30;91.90;;;;;;5094682;28;20638;-86
2024/03/03 00:41:47;;;;;;;44.47;35.47;;;6.30;92.00;;;;;;5076016;28;20635;-86
2024/03/03 00:44:13;;;;;;;46.23;35.70;;;6.30;92.00;;;;;;5094473;28;20178;-86
2024/03/03 00:46:39;;;;;;;42.87;32.43;;;6.30;92.10;;;;;;5076173;28;20175;-85
2024/03/03 00:49:04;;;;;;;46.00;33.77;;;6.30;92.10;;;;;;5094245;28;20179;-86
2024/03/03 00:51:30;;;;;;;43.40;34.03;;;6.30;92.20;;;;;;5094170;28;20210;-86
2024/03/03 00:53:55;;;;;;;44.43;33.07;;;6.30;92.30;;;;;;5094446;28;20631;-86
2024/03/03 00:56:21;;;;;;;42.57;33.73;;;6.40;92.30;;;;;;5097389;28;20391;-87
2024/03/03 00:58:46;;;;;;;41.93;34.27;;;6.40;92.40;;;;;;5098363;28;20388;-86
2024/03/03 01:01:14;;;;;;;46.63;34.77;;;6.50;92.40;;;;;;5098168;28;20662;-86
2024/03/03 01:03:40;;;;;;;45.97;34.83;;;6.50;92.50;;;;;;5099011;28;20567;-88
2024/03/03 01:06:06;;;;;;;44.83;33.43;;;6.50;92.40;;;;;;5078310;28;20175;-88
2024/03/03 01:08:31;;;;;;;47.73;36.07;;;6.50;92.40;;;;;;5096493;28;20166;-88
2024/03/03 01:10:57;;;;;;;47.57;35.23;;;6.60;92.40;;;;;;5078236;28;20650;-87
2024/03/03 01:13:23;;;;;;;47.43;36.00;;;6.60;92.40;;;;;;5078057;28;20201;-88
2024/03/03 01:15:48;;;;;;;43.40;35.97;;;6.60;92.40;;;;;;5096382;28;20202;-87
2024/03/03 01:18:14;;;;;;;42.60;30.50;;;6.60;92.30;;;;;;5096666;28;20167;-87
2024/03/03 01:20:39;;;;;;;44.77;32.23;;;6.60;92.30;;;;;;5078077;28;20170;-87
2024/03/03 01:23:05;;;;;;;40.20;30.07;;;6.60;92.30;;;;;;5078011;28;20274;-86
2024/03/03 01:25:31;;;;;;;41.83;30.37;;;6.60;92.20;;;;;;5096465;28;20540;-87
2024/03/03 01:27:56;;;;;;;48.07;32.27;;;6.60;92.20;;;;;;5096507;28;20166;-86
2024/03/03 01:30:22;;;;;;;43.30;31.13;;;6.60;92.10;;;;;;5077938;28;20178;-86
2024/03/03 01:32:48;;;;;;;49.20;32.60;;;6.60;92.10;;;;;;5095973;28;20195;-87
2024/03/03 01:35:13;;;;;;;44.60;31.33;;;6.60;92.20;;;;;;5096560;28;20206;-87
2024/03/03 01:37:39;;;;;;;46.47;30.70;;;6.60;92.30;;;;;;5077850;28;20552;-86
2024/03/03 01:40:05;;;;;;;47.87;31.83;;;6.60;92.30;;;;;;5096021;28;20228;-87
2024/03/03 01:42:31;;;;;;;45.07;31.03;;;6.60;92.30;;;;;;5095794;28;20195;-87
2024/03/03 01:44:56;;;;;;;44.83;29.90;;;6.50;92.40;;;;;;5077754;28;20174;-86
2024/03/03 01:47:22;;;;;;;47.37;31.07;;;6.60;92.50;;;;;;5077739;28;20634;-87
2024/03/03 01:49:50;;;;;;;50.47;34.27;;;6.60;92.50;;;;;;5095778;28;20182;-86
2024/03/03 01:52:16;;;;;;;48.23;32.53;;;6.60;92.50;;;;;;5077489;28;20213;-86
2024/03/03 01:54:42;;;;;;;51.07;33.43;;;6.60;92.60;;;;;;5077516;28;20183;-87
2024/03/03 01:57:13;;;;;;;47.00;32.70;;;6.60;92.70;;;;;;5077480;28;20206;-87
2024/03/03 01:59:40;;;;;;;50.67;31.40;;;6.60;92.60;;;;;;5095559;28;20242;-87
2024/03/03 02:02:06;;;;;;;44.60;32.90;;;6.70;92.70;;;;;;5077422;28;20198;-86
2024/03/03 02:04:33;;;;;;;49.13;32.53;;;6.70;92.70;;;;;;5077374;28;20171;-87
2024/03/03 02:07:00;;;;;;;48.80;33.37;;;6.70;92.70;;;;;;5077247;28;20178;-87
2024/03/03 02:09:26;;;;;;;49.27;33.93;;;6.70;92.60;;;;;;5077230;28;20206;-86
2024/03/03 02:11:51;;;;;;;50.77;32.83;;;6.70;92.60;;;;;;5095622;28;20198;-86
2024/03/03 02:14:17;;;;;;;48.63;32.90;;;6.80;92.60;;;;;;5077273;28;20179;-86
2024/03/03 02:16:42;;;;;;;50.60;34.57;;;6.80;92.60;;;;;;5095263;28;20202;-86
2024/03/03 02:19:08;;;;;;;50.57;34.73;;;6.80;92.50;;;;;;5077133;28;20177;-86
2024/03/03 02:21:34;;;;;;;58.57;38.47;;;6.70;92.50;;;;;;5095196;28;20244;-86
2024/03/03 02:23:59;;;;;;;54.80;40.93;;;6.80;92.40;;;;;;5077146;28;20175;-86
2024/03/03 02:26:26;;;;;;;50.53;39.53;;;6.80;92.50;;;;;;5077172;28;20209;-86
2024/03/03 02:28:53;;;;;;;59.73;40.73;;;6.80;92.40;;;;;;5095346;28;20167;-86
2024/03/03 02:31:19;;;;;;;51.40;39.70;;;6.70;92.40;;;;;;5094762;28;20217;-86
2024/03/03 02:33:45;;;;;;;52.27;39.77;;;6.70;92.40;;;;;;5094796;28;20207;-86
2024/03/03 02:36:12;;;;;;;54.33;40.00;;;6.70;92.30;;;;;;5094931;28;20288;-87
2024/03/03 02:38:40;;;;;;;55.07;39.20;;;6.70;92.30;;;;;;5076513;28;20562;-86
2024/03/03 02:41:05;;;;;;;52.70;41.60;;;6.70;92.20;;;;;;5076348;28;20228;-86
2024/03/03 02:43:31;;;;;;;48.73;39.37;;;6.70;92.10;;;;;;5076553;28;20174;-86
2024/03/03 02:45:56;;;;;;;51.57;38.23;;;6.60;92.10;;;;;;5076456;28;20186;-86
2024/03/03 02:48:22;;;;;;;51.40;39.40;;;6.60;92.10;;;;;;5076275;28;20553;-84
2024/03/03 02:50:47;;;;;;;52.43;39.47;;;6.60;92.10;;;;;;5094491;28;20183;-85
2024/03/03 02:53:13;;;;;;;53.87;41.43;;;6.60;92.10;;;;;;5094716;28;20638;-85
2024/03/03 02:55:38;;;;;;;49.17;38.70;;;6.60;92.10;;;;;;5076074;28;20666;-86
2024/03/03 02:58:04;;;;;;;52.73;39.60;;;6.50;92.10;;;;;;5076115;28;20181;-85
2024/03/03 03:00:30;;;;;;;50.93;39.57;;;6.50;92.10;;;;;;5094221;28;20235;-87
2024/03/03 03:02:55;;;;;;;56.60;41.63;;;6.50;92.10;;;;;;5094082;28;20197;-85
2024/03/03 03:05:21;;;;;;;56.87;39.37;;;6.30;92.10;;;;;;5075927;28;20182;-85
2024/03/03 03:07:46;;;;;;;53.77;41.00;;;6.40;92.20;;;;;;5094122;28;20174;-86
2024/03/03 03:10:12;;;;;;;56.07;41.00;;;6.30;92.20;;;;;;5075838;28;20609;-86
2024/03/03 03:12:38;;;;;;;54.67;40.37;;;6.30;92.30;;;;;;5093927;28;20190;-85
2024/03/03 03:15:05;;;;;;;54.20;41.53;;;6.30;92.20;;;;;;5094113;28;20220;-85
2024/03/03 03:17:31;;;;;;;52.17;40.87;;;6.20;92.20;;;;;;5093592;28;20232;-86
2024/03/03 03:19:57;;;;;;;53.50;41.67;;;6.20;92.30;;;;;;5075810;28;20791;-84
2024/03/03 03:22:22;;;;;;;59.07;39.63;;;6.10;92.30;;;;;;5094086;28;20623;-86
2024/03/03 03:24:47;;;;;;;62.03;42.93;;;6.10;92.40;;;;;;5093988;28;20228;-85
2024/03/03 03:27:13;;;;;;;59.97;43.07;;;6.20;92.30;;;;;;5093789;28;20178;-86
2024/03/03 03:29:39;;;;;;;55.40;41.33;;;6.10;92.20;;;;;;5093944;28;20545;-86
2024/03/03 03:32:05;;;;;;;60.50;42.30;;;6.10;92.30;;;;;;5075626;28;20573;-85
2024/03/03 03:34:30;;;;;;;58.10;41.60;;;6.10;92.30;;;;;;5093710;28;20564;-86
2024/03/03 03:36:56;;;;;;;55.87;41.13;;;6.00;92.30;;;;;;5075564;28;20203;-86
2024/03/03 03:39:21;;;;;;;54.80;40.93;;;6.10;92.50;;;;;;5075626;28;20249;-87
2024/03/03 03:41:49;;;;;;;55.93;41.30;;;6.10;92.50;;;;;;5093578;28;20190;-87
2024/03/03 03:44:17;;;;;;;58.27;43.03;;;6.00;92.50;;;;;;5093749;28;20533;-86
2024/03/03 03:46:42;;;;;;;56.47;42.13;;;6.00;92.40;;;;;;5093537;28;20184;-85
2024/03/03 03:49:13;;;;;;;59.23;42.07;;;5.90;92.30;;;;;;5075939;28;20178;-84
2024/03/03 03:51:39;;;;;;;54.23;41.67;;;5.90;92.30;;;;;;5075320;28;20206;-86
2024/03/03 03:54:05;;;;;;;53.20;40.57;;;5.90;92.40;;;;;;5093586;28;20265;-85
2024/03/03 03:56:31;;;;;;;55.53;43.63;;;5.80;92.40;;;;;;5075356;28;20716;-85
2024/03/03 03:58:58;;;;;;;62.13;45.40;;;5.80;92.50;;;;;;5093662;28;20543;-85
2024/03/03 04:01:24;;;;;;;56.57;41.93;;;5.80;92.50;;;;;;5075396;28;20171;-85
2024/03/03 04:03:49;;;;;;;60.50;45.47;;;5.80;92.50;;;;;;5093549;28;20170;-85
2024/03/03 04:06:15;;;;;;;65.80;46.17;;;5.70;92.60;;;;;;5075341;28;20543;-85
2024/03/03 04:08:41;;;;;;;59.50;44.27;;;5.70;92.60;;;;;;5093498;28;20174;-86
2024/03/03 04:11:10;;;;;;;59.90;43.90;;;5.60;92.70;;;;;;5075303;28;20174;-85
2024/03/03 04:13:35;;;;;;;67.70;46.57;;;5.60;92.80;;;;;;5075341;28;20677;-85
2024/03/03 04:16:01;;;;;;;63.90;45.67;;;5.60;92.90;;;;;;5093650;28;20203;-86
2024/03/03 04:18:26;;;;;;;54.83;37.70;;;5.60;92.90;;;;;;5075391;28;20174;-85
2024/03/03 04:20:53;;;;;;;56.93;37.97;;;5.60;93.00;;;;;;5093651;28;20605;-85
2024/03/03 04:23:18;;;;;;;59.27;39.90;;;5.60;92.90;;;;;;5093616;28;20221;-85
2024/03/03 04:25:44;;;;;;;57.37;39.20;;;5.50;93.00;;;;;;5093306;28;20201;-85
2024/03/03 04:28:12;;;;;;;56.83;38.40;;;5.50;93.00;;;;;;5093196;28;20170;-85
2024/03/03 04:30:38;;;;;;;53.63;38.37;;;5.40;93.00;;;;;;5095065;28;20728;-86
2024/03/03 04:33:03;;;;;;;58.67;39.77;;;5.40;93.00;;;;;;5097131;28;20191;-85
2024/03/03 04:35:29;;;;;;;62.30;40.07;;;5.40;93.00;;;;;;5078998;28;20259;-85
2024/03/03 04:37:54;;;;;;;62.20;39.77;;;5.40;93.10;;;;;;5097182;28;20174;-86
2024/03/03 04:40:20;;;;;;;57.37;38.83;;;5.50;93.20;;;;;;5078943;28;20178;-85
2024/03/03 04:42:46;;;;;;;61.67;39.87;;;5.40;93.20;;;;;;5078904;28;20190;-84
2024/03/03 04:45:12;;;;;;;66.20;40.90;;;5.50;93.30;;;;;;5079051;28;20174;-85
2024/03/03 04:47:39;;;;;;;65.23;40.10;;;5.50;93.40;;;;;;5078659;28;20184;-85
2024/03/03 04:50:06;;;;;;;68.43;41.30;;;5.50;93.50;;;;;;5078706;28;20658;-85
2024/03/03 04:52:31;;;;;;;67.03;41.13;;;5.60;93.60;;;;;;5078601;28;20238;-85
2024/03/03 04:54:57;;;;;;;62.70;39.97;;;5.60;93.60;;;;;;5096817;28;20258;-85
2024/03/03 04:57:22;;;;;;;57.23;40.03;;;5.60;93.60;;;;;;5096953;28;20202;-85
2024/03/03 04:59:48;;;;;;;65.07;39.47;;;5.70;93.70;;;;;;5097131;28;20657;-86
2024/03/03 05:02:13;;;;;;;64.90;39.13;;;5.70;93.70;;;;;;5096901;28;20202;-85
2024/03/03 05:04:39;;;;;;;71.63;40.53;;;5.70;93.70;;;;;;5078745;28;20295;-86
2024/03/03 05:07:04;;;;;;;63.60;41.23;;;5.70;93.70;;;;;;5096711;28;20171;-85
2024/03/03 05:09:30;;;;;;;60.00;40.43;;;5.60;93.60;;;;;;5078640;28;20178;-85
2024/03/03 05:11:55;;;;;;;60.40;40.57;;;5.70;93.70;;;;;;5096557;28;20197;-85
2024/03/03 05:14:21;;;;;;;64.10;40.13;;;5.70;93.70;;;;;;5096729;28;20167;-86
2024/03/03 05:16:46;;;;;;;61.27;39.87;;;5.60;93.60;;;;;;5078247;28;20210;-85
2024/03/03 05:19:12;;;;;;;60.73;39.47;;;5.60;93.60;;;;;;5097037;28;20253;-86
2024/03/03 05:21:38;;;;;;;59.40;41.03;;;5.60;93.60;;;;;;5078902;28;20194;-85
2024/03/03 05:24:04;;;;;;;60.70;40.53;;;5.60;93.60;;;;;;5096500;28;20642;-85
2024/03/03 05:26:29;;;;;;;58.50;40.57;;;5.60;93.60;;;;;;5096339;28;20171;-85
2024/03/03 05:28:54;;;;;;;60.00;38.83;;;5.60;93.60;;;;;;5078454;28;20175;-85
2024/03/03 05:31:20;;;;;;;63.27;39.57;;;5.60;93.60;;;;;;5096358;28;20177;-86
2024/03/03 05:33:45;;;;;;;57.60;39.60;;;5.60;93.60;;;;;;5096548;28;20665;-87
2024/03/03 05:36:13;;;;;;;55.03;38.60;;;5.60;93.50;;;;;;5096098;28;20198;-85
2024/03/03 05:38:39;;;;;;;58.23;38.47;;;5.60;93.60;;;;;;5096071;28;20609;-86
2024/03/03 05:41:05;;;;;;;63.80;39.80;;;5.50;93.50;;;;;;5077578;28;20668;-86
2024/03/03 05:43:31;;;;;;;57.20;39.27;;;5.50;93.40;;;;;;5077819;28;20171;-86
2024/03/03 05:45:56;;;;;;;57.83;36.97;;;5.50;93.40;;;;;;5096121;28;20181;-85
2024/03/03 05:48:22;;;;;;;67.20;40.37;;;5.40;93.40;;;;;;5078091;28;20183;-86
2024/03/03 05:50:47;;;;;;;57.30;37.70;;;5.40;93.40;;;;;;5095994;28;20232;-86
2024/03/03 05:53:13;;;;;;;58.17;40.43;;;5.30;93.30;;;;;;5095908;28;20693;-86
2024/03/03 05:55:39;;;;;;;53.13;39.03;;;5.30;93.40;;;;;;5095924;28;20311;-86
2024/03/03 05:58:04;;;;;;;50.97;36.00;;;5.30;93.50;;;;;;5077880;28;20181;-86
2024/03/03 06:00:30;;;;;;;57.93;44.23;;;5.30;93.40;;;;;;5095812;28;20196;-85
2024/03/03 06:02:55;;;;;;;60.27;46.27;;;5.30;93.30;;;;;;5095760;28;20277;-88
2024/03/03 06:05:21;;;;;;;59.73;45.23;;;5.30;93.30;;;;;;5078017;28;20170;-86
2024/03/03 06:07:46;;;;;;;59.27;44.67;;;5.20;93.20;;;;;;5095927;28;20546;-86
2024/03/03 06:10:11;;;;;;;55.17;42.57;;;5.10;93.10;;;;;;5095630;28;20181;-86
2024/03/03 06:12:37;;;;;;;45.10;38.30;;;5.00;93.10;;;;;;5077518;28;20209;-85
2024/03/03 06:15:03;;;;;;;44.33;38.07;;;4.90;93.20;;;;;;5095737;28;20175;-86
2024/03/03 06:17:28;;;;;;;46.47;38.07;;;4.90;93.20;;;;;;5095804;28;20170;-85
2024/03/03 06:19:55;;;;;;;51.07;41.63;;;5.00;93.40;;;;;;5077417;28;20546;-85
2024/03/03 06:22:21;;;;;;;55.80;41.30;;;4.90;93.30;;;;;;5095650;28;20189;-86
2024/03/03 06:24:46;;;;;;;67.23;45.87;;;4.90;93.30;;;;;;5095206;28;20542;-85
2024/03/03 06:27:12;;;;;;;59.17;41.93;;;5.00;93.30;;;;;;5077277;28;20182;-85
2024/03/03 06:29:37;;;;;;;54.30;40.77;;;5.20;93.30;;;;;;5095603;28;20182;-85
2024/03/03 06:32:03;;;;;;;55.97;44.03;;;5.10;93.10;;;;;;5076830;28;20205;-85
2024/03/03 06:34:29;;;;;;;60.13;43.37;;;5.10;93.00;;;;;;5095170;28;20194;-85
2024/03/03 06:36:54;;;;;;;64.33;44.63;;;5.00;93.10;;;;;;5094967;28;20202;-85
2024/03/03 06:39:20;;;;;;;57.93;41.80;;;5.00;93.10;;;;;;5076637;28;20169;-84
2024/03/03 06:41:45;;;;;;;60.00;43.50;;;4.90;93.20;;;;;;5076494;28;20194;-85
2024/03/03 06:44:16;;;;;;;63.17;45.10;;;4.90;93.20;;;;;;5076481;28;20616;-85
2024/03/03 06:46:44;;;;;;;62.43;44.43;;;4.90;93.30;;;;;;5076764;28;20579;-84
2024/03/03 06:49:09;;;;;;;64.53;44.23;;;4.80;93.40;;;;;;5076513;28;20723;-84
2024/03/03 06:51:35;;;;;;;62.33;42.30;;;4.80;93.50;;;;;;5094397;28;20247;-85
2024/03/03 06:54:01;;;;;;;68.33;46.03;;;4.80;93.60;;;;;;5093489;28;20182;-85
2024/03/03 06:56:27;;;;;;;66.27;45.67;;;4.80;93.80;;;;;;5076539;28;20301;-85
2024/03/03 06:58:52;;;;;;;76.20;47.93;;;5.00;93.90;;;;;;5076237;28;20269;-85
2024/03/03 07:01:18;;;;;;;71.90;46.73;;;5.00;94.00;;;;;;5094133;28;20257;-85
2024/03/03 07:06:27;;;;;;;69.10;46.83;;;5.10;94.10;;;;;;5094621;28;20208;-85
2024/03/03 07:08:53;;;;;;;72.80;46.93;;;5.20;94.10;;;;;;5094221;28;20178;-85
2024/03/03 07:11:19;;;;;;;71.57;46.10;;;5.20;94.10;;;;;;5094132;28;20714;-85
2024/03/03 07:13:44;;;;;;;76.60;49.20;;;5.10;94.20;;;;;;5076036;28;20185;-85
2024/03/03 07:16:10;;;;;;;69.17;46.10;;;5.20;94.20;;;;;;5094046;28;20699;-86
2024/03/03 07:18:35;;;;;;;77.07;49.03;;;5.30;94.20;;;;;;5093978;28;20171;-86
2024/03/03 07:21:01;;;;;;;73.47;48.67;;;5.30;94.20;;;;;;5094142;28;20175;-86
2024/03/03 07:23:26;;;;;;;82.73;50.07;;;5.40;94.30;;;;;;5094094;28;20197;-85
2024/03/03 07:25:52;;;;;;;79.00;47.80;;;5.50;94.30;;;;;;5093998;28;20240;-85
2024/03/03 07:28:17;;;;;;;77.20;49.97;;;5.50;94.40;;;;;;5093857;28;20174;-85
2024/03/03 07:30:43;;;;;;;80.30;50.03;;;5.60;94.40;;;;;;5093975;28;20772;-85
2024/03/03 07:33:08;;;;;;;80.13;51.40;;;5.80;94.50;;;;;;5093843;28;20197;-85
2024/03/03 07:35:34;;;;;;;79.93;49.30;;;5.90;94.50;;;;;;5093794;28;20210;-86
2024/03/03 07:38:00;;;;;;;77.33;48.90;;;5.90;94.50;;;;;;5075530;28;20520;-86
2024/03/03 07:40:29;;;;;;;75.80;48.93;;;6.00;94.50;;;;;;5093765;28;20192;-86
2024/03/03 07:42:54;;;;;;;74.00;46.73;;;6.10;94.60;;;;;;5075585;28;20205;-85
2024/03/03 07:45:20;;;;;;;74.17;47.87;;;6.20;94.50;;;;;;5093734;28;20170;-86
2024/03/03 07:47:45;;;;;;;74.53;46.10;;;6.20;94.50;;;;;;5093796;28;20174;-85
2024/03/03 07:50:11;;;;;;;71.17;46.70;;;6.30;94.50;;;;;;5093515;28;20256;-85
2024/03/03 07:52:37;;;;;;;72.67;49.67;;;6.30;94.50;;;;;;5093479;28;20278;-85
2024/03/03 07:55:02;;;;;;;75.07;49.10;;;6.40;94.50;;;;;;5093974;28;20208;-85
2024/03/03 07:57:28;;;;;;;76.13;49.03;;;6.50;94.40;;;;;;5075343;28;20738;-85
2024/03/03 07:59:53;;;;;;;75.83;48.57;;;6.60;94.40;;;;;;5093807;28;20717;-85
2024/03/03 08:02:19;;;;;;;63.83;43.63;;;6.70;94.40;;;;;;5093514;28;20198;-85
2024/03/03 08:04:44;;;;;;;67.27;47.27;;;6.70;94.40;;;;;;5075164;28;20178;-88
2024/03/03 08:07:10;;;;;;;71.00;43.53;;;6.80;94.40;;;;;;5093458;28;20182;-87
2024/03/03 08:09:35;;;;;;;71.80;42.47;;;6.90;94.30;;;;;;5093961;28;20179;-86
2024/03/03 08:12:02;;;;;;;69.87;43.30;;;7.00;94.30;;;;;;5093609;28;20209;-88
2024/03/03 08:14:27;;;;;;;65.40;41.90;;;7.00;94.20;;;;;;5075649;28;20708;-87
2024/03/03 08:16:53;;;;;;;63.77;41.43;;;7.10;94.10;;;;;;5093946;28;20234;-85
2024/03/03 08:19:18;;;;;;;66.00;41.43;;;7.20;94.00;;;;;;5075369;28;20175;-85
2024/03/03 08:21:44;;;;;;;70.13;44.97;;;7.30;94.00;;;;;;5093217;28;20566;-85
2024/03/03 08:24:10;;;;;;;69.07;44.63;;;7.30;93.90;;;;;;5093333;28;20166;-85
2024/03/03 08:26:36;;;;;;;69.63;43.50;;;7.40;93.90;;;;;;5093324;28;20178;-85
2024/03/03 08:29:03;;;;;;;66.67;44.67;;;7.60;93.90;;;;;;5093469;28;20177;-85
2024/03/03 08:31:30;;;;;;;72.17;45.13;;;7.60;93.80;;;;;;5093272;28;20190;-85
2024/03/03 08:33:56;;;;;;;74.57;44.83;;;7.60;93.60;;;;;;5093237;28;20178;-85
2024/03/03 08:36:22;;;;;;;69.57;45.33;;;7.70;93.60;;;;;;5075214;28;20194;-87
2024/03/03 08:38:47;;;;;;;76.13;46.70;;;7.80;93.50;;;;;;5093798;28;20171;-88
2024/03/03 08:41:13;;;;;;;66.30;42.13;;;7.90;93.40;;;;;;5093736;28;20253;-86
2024/03/03 08:43:38;;;;;;;67.93;43.07;;;7.90;93.30;;;;;;5093339;28;20163;-86
2024/03/03 08:46:04;;;;;;;71.03;44.77;;;8.10;93.30;;;;;;5075158;28;20646;-89
2024/03/03 08:48:29;;;;;;;68.20;40.83;;;8.10;93.10;;;;;;5093329;28;20180;-86
2024/03/03 08:50:55;;;;;;;59.50;41.40;;;8.20;92.90;;;;;;5093214;28;20167;-89
2024/03/03 08:53:22;;;;;;;64.37;42.57;;;8.20;92.80;;;;;;5074861;28;20210;-88
2024/03/03 08:55:47;;;;;;;61.57;41.37;;;8.30;92.70;;;;;;5075337;28;20579;-86
2024/03/03 08:58:13;;;;;;;65.40;44.10;;;8.40;92.60;;;;;;5075175;28;20167;-85
2024/03/03 09:00:38;;;;;;;62.60;41.17;;;8.40;92.40;;;;;;5093446;28;20178;-85
2024/03/03 09:03:04;;;;;;;51.60;33.93;;;8.50;92.30;;;;;;5093679;28;20182;-85
2024/03/03 09:05:29;;;;;;;64.13;43.47;;;8.50;92.10;;;;;;5075041;28;20178;-85
2024/03/03 09:07:55;;;;;;;61.00;42.23;;;8.60;92.10;;;;;;5093338;28;20167;-85
2024/03/03 09:10:21;;;;;;;55.13;38.03;;;8.70;92.20;;;;;;5075065;28;20175;-85
2024/03/03 09:12:46;;;;;;;63.70;42.80;;;8.70;91.70;;;;;;5075069;28;20202;-86
2024/03/03 09:15:12;;;;;;;60.60;43.47;;;8.70;91.70;;;;;;5075253;28;20175;-85
2024/03/03 09:17:38;;;;;;;62.93;43.83;;;8.80;91.50;;;;;;5078229;28;20175;-86
2024/03/03 09:20:05;;;;;;;62.77;43.67;;;8.90;91.50;;;;;;5078778;28;20184;-85
2024/03/03 09:22:31;;;;;;;64.17;43.53;;;9.00;91.40;;;;;;5078654;28;20322;-86
2024/03/03 09:24:57;;;;;;;64.13;44.80;;;9.10;91.30;;;;;;5096812;28;20254;-85
2024/03/03 09:27:25;;;;;;;59.80;42.23;;;9.20;91.20;;;;;;5096546;28;20665;-85
2024/03/03 09:29:51;;;;;;;62.77;44.07;;;9.30;90.90;;;;;;5078348;28;20257;-85
2024/03/03 09:32:16;;;;;;;56.03;41.83;;;9.50;90.90;;;;;;5078216;28;20670;-86
2024/03/03 09:34:42;;;;;;;60.70;43.20;;;9.50;90.20;;;;;;5096541;28;20183;-85
2024/03/03 09:37:08;;;;;;;57.60;43.13;;;9.50;90.10;;;;;;5096741;28;20206;-86
2024/03/03 09:39:33;;;;;;;62.20;43.70;;;9.70;90.10;;;;;;5078188;28;20232;-86
2024/03/03 09:41:59;;;;;;;56.37;41.07;;;9.80;89.90;;;;;;5096413;28;20574;-85
2024/03/03 09:44:40;;;;;;;60.47;42.00;;;9.80;89.00;;;;;;5078259;28;20171;-86
2024/03/03 09:47:08;;;;;;;62.00;43.77;;;9.80;89.10;;;;;;5096348;28;20266;-85
2024/03/03 09:49:35;;;;;;;62.07;46.20;;;9.90;89.00;;;;;;5078275;28;20355;-85
2024/03/03 09:52:03;;;;;;;56.73;43.07;;;10.20;89.20;;;;;;5096241;28;20217;-85
2024/03/03 09:54:30;;;;;;;56.73;42.90;;;10.20;88.50;;;;;;5096061;28;20192;-85
2024/03/03 09:56:58;;;;;;;58.20;43.77;;;10.20;87.90;;;;;;5095963;28;20578;-85
2024/03/03 09:59:23;;;;;;;58.80;43.97;;;10.30;88.40;;;;;;5078149;28;20186;-86
2024/03/03 10:01:51;;;;;;;59.60;43.77;;;10.50;88.30;;;;;;5095949;28;20670;-87
2024/03/03 10:04:18;;;;;;;55.20;43.70;;;10.60;87.90;;;;;;5078127;28;20257;-88
2024/03/03 10:06:44;;;;;;;58.20;43.67;;;10.60;87.30;;;;;;5095765;28;20174;-86
2024/03/03 10:09:15;;;;;;;65.67;42.53;;;10.70;86.60;;;;;;5095980;28;20194;-86
2024/03/03 10:11:44;;;;;;;56.50;46.90;;;10.70;86.70;;;;;;5077768;28;20198;-87
2024/03/03 10:14:10;;;;;;;61.57;48.57;;;10.80;86.80;;;;;;5095713;28;20167;-87
2024/03/03 10:16:37;;;;;;;64.83;47.60;;;10.90;86.70;;;;;;5077490;28;20209;-85
2024/03/03 10:19:04;;;;;;;58.63;46.97;;;10.90;86.30;;;;;;5096564;28;20170;-87
2024/03/03 10:21:38;;;;;;;53.63;46.77;;;11.00;85.80;;;;;;5095697;28;20666;-85
2024/03/03 10:24:19;;;;;;;57.83;48.97;;;11.10;85.60;;;;;;5095452;28;20179;-87
2024/03/03 10:26:45;;;;;;;54.60;44.90;;;11.20;85.60;;;;;;5095298;28;20260;-85
2024/03/03 10:29:10;;;;;;;56.10;49.93;;;11.20;85.30;;;;;;5095430;28;20198;-85
2024/03/03 10:31:36;;;;;;;55.30;46.00;;;11.20;84.90;;;;;;5095344;28;20201;-85
2024/03/03 10:34:02;;;;;;;55.63;45.17;;;11.20;84.80;;;;;;5095536;28;20546;-85
2024/03/03 10:36:29;;;;;;;56.17;47.20;;;11.20;84.50;;;;;;5077063;28;20211;-85
2024/03/03 10:38:55;;;;;;;56.77;47.87;;;11.30;84.70;;;;;;5095205;28;20163;-86
2024/03/03 10:41:20;;;;;;;58.80;47.97;;;11.40;85.20;;;;;;5095306;28;20201;-86
2024/03/03 10:43:46;;;;;;;54.70;46.27;;;11.40;84.20;;;;;;5095037;28;20178;-86
2024/03/03 10:46:12;;;;;;;54.40;44.97;;;11.40;84.00;;;;;;5076951;28;20174;-86
2024/03/03 10:48:40;;;;;;;57.10;47.67;;;11.40;83.80;;;;;;5095017;28;20170;-86
2024/03/03 10:51:07;;;;;;;59.43;49.13;;;11.50;84.10;;;;;;5076666;28;20186;-85
2024/03/03 10:53:32;;;;;;;56.17;50.03;;;11.70;84.10;;;;;;5094942;28;20278;-86
2024/03/03 10:55:58;;;;;;;51.53;45.40;;;11.80;84.30;;;;;;5094908;28;20284;-86
2024/03/03 10:58:26;;;;;;;53.67;43.93;;;11.90;83.40;;;;;;5094842;28;20178;-86
2024/03/03 11:00:53;;;;;;;52.73;46.67;;;11.90;82.60;;;;;;5076468;28;20175;-86
2024/03/03 11:03:19;;;;;;;52.87;43.43;;;12.00;82.90;;;;;;5094673;28;20654;-86
2024/03/03 11:05:46;;;;;;;57.93;48.23;;;12.10;82.20;;;;;;5094655;28;20175;-86
2024/03/03 11:08:13;;;;;;;50.00;44.57;;;12.30;82.60;;;;;;5094818;28;20627;-86
2024/03/03 11:10:39;;;;;;;54.07;46.57;;;12.30;81.30;;;;;;5094680;28;20202;-86
2024/03/03 11:13:06;;;;;;;57.50;47.47;;;12.30;81.50;;;;;;5094555;28;20194;-86
2024/03/03 11:15:37;;;;;;;53.50;45.57;;;12.50;82.00;;;;;;5076262;28;20181;-86
2024/03/03 11:18:04;;;;;;;45.50;38.10;;;12.70;82.10;;;;;;5076233;28;20200;-85
2024/03/03 11:20:40;;;;;;;49.60;39.03;;;12.70;79.80;;;;;;5076123;28;20224;-86
2024/03/03 11:23:11;;;;;;;44.43;38.67;;;12.70;80.00;;;;;;5094196;28;20568;-85
2024/03/03 11:25:48;;;;;;;43.90;35.60;;;12.90;81.10;;;;;;5076275;28;20631;-85
2024/03/03 11:28:21;;;;;;;41.37;36.67;;;12.90;78.30;;;;;;5094209;28;20622;-86
2024/03/03 11:30:47;;;;;;;40.83;34.67;;;13.00;77.60;;;;;;5094218;28;20163;-86
2024/03/03 11:33:14;;;;;;;39.00;34.77;;;13.10;76.60;;;;;;5094056;28;20285;-85
2024/03/03 11:35:40;;;;;;;40.80;36.00;;;13.20;76.70;;;;;;5093975;28;20197;-88
2024/03/03 11:38:07;;;;;;;39.13;35.03;;;13.20;75.70;;;;;;5076045;28;20183;-86
2024/03/03 11:40:33;;;;;;;42.63;34.57;;;13.30;75.80;;;;;;5093640;28;20171;-86
2024/03/03 11:43:00;;;;;;;40.87;35.17;;;13.40;75.80;;;;;;5093970;28;20213;-86
2024/03/03 11:45:45;;;;;;;38.87;34.60;;;13.50;76.40;;;;;;5075769;28;20201;-86
2024/03/03 11:48:14;;;;;;;38.40;34.30;;;13.60;75.40;;;;;;5076586;28;20520;-85
2024/03/03 11:50:40;;;;;;;37.03;33.33;;;13.60;74.30;;;;;;5075666;28;20167;-86
2024/03/03 11:53:06;;;;;;;36.80;33.07;;;13.70;74.60;;;;;;5093753;28;20297;-86
2024/03/03 11:55:38;;;;;;;38.10;34.37;;;13.80;74.50;;;;;;5094281;28;20174;-86
2024/03/03 11:58:05;;;;;;;41.53;35.13;;;13.80;73.30;;;;;;5094026;28;20174;-86
2024/03/03 12:00:31;;;;;;;37.63;33.93;;;13.90;72.80;;;;;;5075761;28;20178;-85
2024/03/03 12:02:58;;;;;;;43.70;36.70;;;14.00;74.00;;;;;;5093818;28;20198;-85
2024/03/03 12:05:25;;;;;;;40.83;33.73;;;14.00;74.70;;;;;;5094057;28;20174;-86
2024/03/03 12:07:52;;;;;;;38.50;34.73;;;14.00;73.40;;;;;;5075600;28;20182;-86
2024/03/03 12:10:22;;;;;;;38.90;34.67;;;14.00;73.40;;;;;;5093847;28;20205;-86
2024/03/03 12:12:49;;;;;;;40.23;35.83;;;14.20;74.40;;;;;;5093805;28;20191;-85
2024/03/03 12:15:17;;;;;;;37.93;34.20;;;14.20;73.60;;;;;;5094008;28;20186;-86
2024/03/03 12:17:47;;;;;;;36.73;32.77;;;14.30;73.50;;;;;;5094009;28;20227;-86
2024/03/03 12:20:14;;;;;;;35.33;31.53;;;14.30;72.10;;;;;;5076097;28;20172;-85
2024/03/03 12:22:40;;;;;;;35.93;32.27;;;14.20;71.90;;;;;;5075622;28;20223;-85
2024/03/03 12:25:07;;;;;;;35.70;32.33;;;14.10;71.30;;;;;;5075555;28;20261;-86
2024/03/03 12:27:32;;;;;;;35.87;32.07;;;14.10;71.70;;;;;;5075737;28;20247;-85
2024/03/03 12:30:05;;;;;;;38.22;34.33;;;14.20;71.60;;;;;;5093600;28;20588;-85
2024/03/03 12:32:30;;;;;;;35.13;31.53;;;14.30;72.10;;;;;;5075489;28;20199;-86